createdAt,value
2023-01-19T00:00:56.909Z,12.90
2023-01-19T00:03:23.874Z,12.82
2023-01-19T00:05:51.405Z,13.10
2023-01-19T00:08:18.845Z,12.80
2023-01-19T00:10:51.094Z,12.90
2023-01-19T00:13:18.381Z,12.25
2023-01-19T00:15:45.372Z,13.43
2023-01-19T00:18:12.471Z,13.63
2023-01-19T00:20:41.098Z,13.45
2023-01-19T00:23:08.805Z,13.18
2023-01-19T00:25:42.593Z,13.10
2023-01-19T00:28:16.057Z,13.02
2023-01-19T00:30:43.736Z,12.48
2023-01-19T00:33:15.916Z,13.13
2023-01-19T00:35:43.688Z,13.13
2023-01-19T00:38:12.532Z,12.55
2023-01-19T00:40:39.571Z,12.93
2023-01-19T00:43:06.573Z,12.98
2023-01-19T00:45:34.049Z,13.07
2023-01-19T00:48:01.527Z,13.13
2023-01-19T00:50:30.619Z,13.18
2023-01-19T00:53:01.086Z,12.57
2023-01-19T00:55:30.937Z,12.75
2023-01-19T00:57:58.503Z,12.75
2023-01-19T01:00:26.505Z,13.20
2023-01-19T01:02:54.353Z,12.85
2023-01-19T01:05:21.756Z,14.38
2023-01-19T01:07:49.790Z,13.48
2023-01-19T01:10:34.867Z,13.95
2023-01-19T01:13:20.538Z,13.00
2023-01-19T01:15:53.840Z,13.32
2023-01-19T01:18:21.624Z,13.15
2023-01-19T01:20:48.851Z,14.30
2023-01-19T01:23:15.935Z,13.70
2023-01-19T01:25:43.457Z,13.50
2023-01-19T01:28:10.462Z,13.20
2023-01-19T01:30:41.133Z,14.32
2023-01-19T01:33:08.323Z,13.80
2023-01-19T01:35:35.295Z,13.23
2023-01-19T01:38:02.296Z,12.68
2023-01-19T01:40:29.945Z,13.13
2023-01-19T01:42:57.042Z,13.27
2023-01-19T01:45:38.407Z,13.63
2023-01-19T01:48:30.779Z,13.10
2023-01-19T01:51:22.661Z,13.20
2023-01-19T01:53:59.197Z,13.52
2023-01-19T01:56:34.962Z,13.45
2023-01-19T01:59:09.500Z,13.55
2023-01-19T02:04:24.018Z,13.38
2023-01-19T02:07:09.538Z,13.82
2023-01-19T02:09:56.620Z,13.68
2023-01-19T02:12:42.569Z,13.63
2023-01-19T02:15:20.619Z,14.02
2023-01-19T02:17:48.170Z,13.50
2023-01-19T02:20:16.122Z,12.60
2023-01-19T02:22:50.047Z,13.88
2023-01-19T02:25:19.399Z,12.85
2023-01-19T02:27:48.068Z,13.52
2023-01-19T02:30:16.726Z,13.57
2023-01-19T02:32:44.281Z,13.27
2023-01-19T02:35:13.042Z,12.93
2023-01-19T02:37:42.099Z,13.80
2023-01-19T02:40:13.956Z,14.05
2023-01-19T02:42:49.924Z,13.65
2023-01-19T02:45:22.230Z,13.68
2023-01-19T02:47:52.921Z,13.48
2023-01-19T02:50:50.467Z,13.35
2023-01-19T02:54:04.026Z,13.30
2023-01-19T02:56:37.217Z,13.45
2023-01-19T02:59:39.184Z,13.10
2023-01-19T03:02:29.573Z,12.90
2023-01-19T03:05:08.605Z,13.52
2023-01-19T03:08:26.857Z,12.98
2023-01-19T03:11:04.726Z,12.85
2023-01-19T03:13:52.902Z,13.55
2023-01-19T03:16:39.089Z,12.55
2023-01-19T03:19:19.742Z,12.60
2023-01-19T03:21:54.679Z,12.30
2023-01-19T03:24:25.140Z,13.05
2023-01-19T03:27:00.896Z,12.93
2023-01-19T03:29:37.194Z,12.77
2023-01-19T03:32:11.285Z,14.07
2023-01-19T03:34:41.836Z,13.90
2023-01-19T03:37:13.975Z,13.18
2023-01-19T03:39:41.200Z,13.98
2023-01-19T03:42:16.920Z,14.65
2023-01-19T03:44:50.544Z,14.68
2023-01-19T03:47:20.132Z,13.63
2023-01-19T03:49:51.654Z,13.52
2023-01-19T03:52:27.444Z,13.30
2023-01-19T03:54:54.533Z,12.85
2023-01-19T03:57:22.128Z,11.90
2023-01-19T03:59:49.563Z,11.38
2023-01-19T04:02:16.647Z,10.68
2023-01-19T04:04:43.709Z,10.25
2023-01-19T04:07:11.562Z,10.38
2023-01-19T04:09:38.574Z,9.98
2023-01-19T04:12:05.769Z,10.77
2023-01-19T04:14:32.908Z,9.90
2023-01-19T04:17:00.305Z,10.23
2023-01-19T04:19:27.411Z,9.80
2023-01-19T04:21:55.388Z,9.20
2023-01-19T04:24:22.491Z,9.60
2023-01-19T04:26:53.398Z,9.77
2023-01-19T04:29:20.485Z,9.70
2023-01-19T04:31:47.425Z,9.88
2023-01-19T04:34:14.463Z,9.85
2023-01-19T04:36:41.460Z,9.77
2023-01-19T04:39:09.210Z,9.40
2023-01-19T04:41:36.283Z,9.35
2023-01-19T04:44:04.094Z,10.60
2023-01-19T04:46:31.098Z,10.95
2023-01-19T04:48:58.148Z,10.40
2023-01-19T04:51:25.161Z,10.43
2023-01-19T04:53:52.112Z,10.50
2023-01-19T04:56:19.083Z,9.82
2023-01-19T04:58:46.103Z,8.48
2023-01-19T05:01:13.169Z,8.00
2023-01-19T05:03:40.353Z,7.93
2023-01-19T05:06:07.902Z,7.05
2023-01-19T05:08:34.955Z,6.75
2023-01-19T05:11:01.955Z,7.07
2023-01-19T05:13:29.037Z,6.40
2023-01-19T05:15:56.016Z,6.40
2023-01-19T05:18:23.063Z,5.53
2023-01-19T05:20:50.219Z,5.57
2023-01-19T05:23:17.290Z,5.05
2023-01-19T05:25:44.567Z,4.95
2023-01-19T05:28:11.868Z,4.88
2023-01-19T05:30:39.055Z,4.93
2023-01-19T05:33:06.032Z,4.35
2023-01-19T05:35:36.314Z,4.30
2023-01-19T05:38:04.169Z,4.00
2023-01-19T05:40:31.347Z,4.25
2023-01-19T05:43:01.758Z,4.00
2023-01-19T05:45:28.997Z,4.03
2023-01-19T05:47:56.067Z,3.63
2023-01-19T05:50:23.302Z,4.30
2023-01-19T05:52:53.133Z,4.07
2023-01-19T05:55:21.202Z,3.55
2023-01-19T05:57:48.183Z,4.10
2023-01-19T06:00:16.084Z,3.50
2023-01-19T06:02:43.576Z,3.30
2023-01-19T06:05:10.681Z,3.60
2023-01-19T06:07:37.722Z,3.20
2023-01-19T06:10:05.710Z,2.55
2023-01-19T06:12:32.677Z,2.70
2023-01-19T06:14:59.633Z,2.65
2023-01-19T06:17:26.653Z,2.50
2023-01-19T06:19:53.617Z,2.45
2023-01-19T06:22:20.804Z,2.60
2023-01-19T06:24:47.772Z,2.83
2023-01-19T06:27:14.789Z,2.92
2023-01-19T06:29:42.065Z,2.85
2023-01-19T06:32:09.037Z,3.28
2023-01-19T06:34:36.029Z,3.50
2023-01-19T06:37:03.903Z,3.80
2023-01-19T06:39:31.263Z,3.97
2023-01-19T06:41:58.259Z,4.70
2023-01-19T06:44:25.767Z,5.03
2023-01-19T06:46:53.336Z,5.50
2023-01-19T06:49:40.763Z,5.55
2023-01-19T06:52:11.487Z,6.07
2023-01-19T06:54:38.455Z,5.97
2023-01-19T06:57:05.611Z,7.03
2023-01-19T06:59:32.599Z,7.10
2023-01-19T07:01:59.744Z,7.72
2023-01-19T07:04:27.124Z,8.23
2023-01-19T07:06:54.116Z,8.40
2023-01-19T07:09:21.301Z,8.52
2023-01-19T07:11:48.519Z,8.93
2023-01-19T07:14:16.467Z,9.00
2023-01-19T07:16:43.607Z,10.50
2023-01-19T07:19:14.373Z,10.48
2023-01-19T07:21:41.350Z,11.75
2023-01-19T07:24:08.421Z,12.98
2023-01-19T07:26:35.405Z,13.05
2023-01-19T07:29:02.413Z,13.70
2023-01-19T07:31:29.401Z,13.35
2023-01-19T07:33:56.581Z,14.48
2023-01-19T07:36:23.661Z,14.70
2023-01-19T07:38:50.659Z,14.70
2023-01-19T07:41:17.610Z,15.60
2023-01-19T07:43:44.617Z,16.05
2023-01-19T07:46:11.678Z,17.30
2023-01-19T07:48:38.707Z,17.55
2023-01-19T07:51:10.435Z,18.48
2023-01-19T07:53:40.033Z,18.90
2023-01-19T07:56:07.770Z,18.90
2023-01-19T07:58:34.733Z,19.48
2023-01-19T08:01:07.607Z,20.17
2023-01-19T08:03:34.795Z,20.40
2023-01-19T08:06:02.630Z,20.83
2023-01-19T08:08:30.165Z,21.23
2023-01-19T08:10:57.115Z,21.90
2023-01-19T08:13:24.724Z,20.80
2023-01-19T08:15:53.779Z,21.45
2023-01-19T08:18:21.599Z,20.98
2023-01-19T08:20:48.783Z,21.05
2023-01-19T08:23:15.747Z,21.60
2023-01-19T08:25:45.134Z,21.52
2023-01-19T08:28:15.927Z,22.00
2023-01-19T08:30:45.089Z,21.27
2023-01-19T08:33:13.310Z,21.08
2023-01-19T08:35:43.582Z,22.40
2023-01-19T08:38:11.230Z,21.98
2023-01-19T08:40:41.096Z,22.83
2023-01-19T08:43:13.227Z,22.40
2023-01-19T08:45:48.129Z,22.13
2023-01-19T08:48:18.723Z,21.90
2023-01-19T08:50:47.712Z,21.75
2023-01-19T08:53:15.976Z,22.25
2023-01-19T08:55:43.225Z,23.83
2023-01-19T08:58:10.797Z,23.67
2023-01-19T09:00:39.653Z,23.23
2023-01-19T09:03:11.364Z,23.40
2023-01-19T09:05:39.588Z,22.15
2023-01-19T09:08:11.011Z,23.38
2023-01-19T09:10:39.952Z,22.58
2023-01-19T09:13:11.034Z,21.80
2023-01-19T09:15:40.261Z,21.60
2023-01-19T09:18:13.673Z,21.30
2023-01-19T09:20:45.160Z,20.60
2023-01-19T09:23:16.527Z,21.75
2023-01-19T09:25:46.290Z,21.13
2023-01-19T09:28:16.438Z,21.05
2023-01-19T09:30:44.743Z,20.63
2023-01-19T09:33:16.008Z,19.70
2023-01-19T09:35:45.510Z,16.23
2023-01-19T09:38:15.245Z,14.82
2023-01-19T09:40:56.399Z,15.18
2023-01-19T09:43:54.629Z,15.73
2023-01-19T09:46:39.601Z,15.52
2023-01-19T09:49:33.420Z,14.63
2023-01-19T09:52:00.820Z,15.68
2023-01-19T09:54:50.186Z,16.58
2023-01-19T09:57:17.183Z,19.27
2023-01-19T09:59:47.784Z,19.30
2023-01-19T10:02:39.084Z,18.60
2023-01-19T10:05:23.837Z,19.95
2023-01-19T10:08:23.128Z,20.55
2023-01-19T10:10:56.717Z,20.33
2023-01-19T10:13:49.704Z,21.27
2023-01-19T10:16:53.177Z,20.83
2023-01-19T10:19:32.726Z,20.90
2023-01-19T10:22:10.590Z,21.60
2023-01-19T10:24:43.458Z,20.35
2023-01-19T10:27:20.816Z,21.08
2023-01-19T10:29:48.305Z,21.60
2023-01-19T10:32:30.790Z,21.73
2023-01-19T10:34:59.796Z,20.92
2023-01-19T10:37:37.770Z,21.85
2023-01-19T10:40:10.755Z,22.25
2023-01-19T10:42:41.896Z,21.75
2023-01-19T10:45:23.616Z,21.88
2023-01-19T10:47:52.800Z,22.63
2023-01-19T10:50:37.200Z,23.35
2023-01-19T10:53:06.562Z,23.77
2023-01-19T10:55:40.143Z,23.58
2023-01-19T10:58:31.142Z,22.27
2023-01-19T11:01:26.017Z,21.92
2023-01-19T11:03:55.452Z,22.50
2023-01-19T11:06:30.736Z,21.23
2023-01-19T11:09:20.116Z,22.00
2023-01-19T11:11:52.886Z,21.55
2023-01-19T11:14:26.389Z,20.10
2023-01-19T11:16:57.861Z,20.33
2023-01-19T11:19:30.071Z,19.88
2023-01-19T11:22:21.616Z,19.05
2023-01-19T11:24:49.924Z,18.80
2023-01-19T11:27:20.410Z,18.33
2023-01-19T11:29:53.996Z,19.95
2023-01-19T11:32:23.419Z,19.40
2023-01-19T11:34:50.781Z,18.60
2023-01-19T11:37:20.514Z,21.00
2023-01-19T11:39:51.928Z,22.40
2023-01-19T11:42:20.876Z,19.77
2023-01-19T11:44:59.720Z,18.33
2023-01-19T11:47:45.949Z,17.85
2023-01-19T11:50:34.681Z,17.52
2023-01-19T11:53:10.948Z,17.17
2023-01-19T11:55:49.825Z,18.35
2023-01-19T11:58:19.352Z,16.83
2023-01-19T12:01:21.076Z,15.73
2023-01-19T12:04:16.056Z,15.90
2023-01-19T12:06:50.037Z,13.88
2023-01-19T12:09:42.687Z,14.82
2023-01-19T12:12:29.022Z,13.40
2023-01-19T12:15:33.964Z,13.52
2023-01-19T12:18:05.334Z,16.42
2023-01-19T12:20:40.690Z,13.02
2023-01-19T12:23:10.652Z,14.35
2023-01-19T12:25:59.491Z,14.40
2023-01-19T12:28:34.981Z,12.05
2023-01-19T12:31:03.178Z,12.18
2023-01-19T12:33:39.919Z,12.20
2023-01-19T12:36:41.116Z,11.75
2023-01-19T12:39:21.873Z,12.15
2023-01-19T12:42:03.995Z,12.90
2023-01-19T12:44:34.230Z,10.93
2023-01-19T12:47:21.002Z,11.23
2023-01-19T12:49:55.177Z,11.82
2023-01-19T12:52:39.290Z,12.60
2023-01-19T12:55:34.552Z,14.90
2023-01-19T13:00:50.325Z,10.43
2023-01-19T13:03:17.347Z,11.80
2023-01-19T13:05:44.304Z,17.70
2023-01-19T13:08:13.942Z,11.73
2023-01-19T13:10:56.267Z,10.15
2023-01-19T13:13:42.362Z,12.35
2023-01-19T13:16:18.816Z,10.82
2023-01-19T13:18:56.161Z,11.60
2023-01-19T13:21:30.273Z,10.90
2023-01-19T13:24:22.506Z,10.93
2023-01-19T13:26:49.457Z,10.07
2023-01-19T13:29:33.924Z,10.68
2023-01-19T13:32:06.405Z,10.00
2023-01-19T13:34:39.117Z,9.88
2023-01-19T13:37:15.106Z,9.18
2023-01-19T13:39:45.717Z,9.77
2023-01-19T13:42:31.579Z,9.57
2023-01-19T13:45:04.639Z,9.60
2023-01-19T13:47:45.909Z,8.90
2023-01-19T13:50:26.351Z,8.52
2023-01-19T13:52:55.722Z,7.57
2023-01-19T13:55:25.072Z,8.35
2023-01-19T13:57:53.127Z,8.55
2023-01-19T14:00:24.916Z,8.35
2023-01-19T14:03:00.898Z,8.07
2023-01-19T14:05:35.352Z,7.70
2023-01-19T14:10:39.853Z,8.43
2023-01-19T14:13:44.706Z,7.72
2023-01-19T14:16:17.892Z,7.88
2023-01-19T14:18:44.943Z,8.38
2023-01-19T14:21:15.683Z,11.90
2023-01-19T14:24:07.844Z,9.80
2023-01-19T14:26:38.137Z,10.63
2023-01-19T14:29:32.854Z,8.52
2023-01-19T14:32:00.249Z,12.45
2023-01-19T14:34:50.336Z,9.27
2023-01-19T14:37:28.300Z,9.02
2023-01-19T14:40:04.774Z,13.15
2023-01-19T14:42:42.344Z,9.65
2023-01-19T14:45:24.922Z,10.27
2023-01-19T14:48:29.341Z,10.98
2023-01-19T14:51:04.401Z,10.27
2023-01-19T14:53:38.531Z,12.13
2023-01-19T14:56:07.209Z,16.08
2023-01-19T14:58:35.717Z,15.73
2023-01-19T15:01:04.623Z,11.90
2023-01-19T15:03:44.849Z,13.88
2023-01-19T15:06:17.181Z,12.25
2023-01-19T15:08:45.543Z,13.50
2023-01-19T15:11:33.948Z,15.07
2023-01-19T15:14:02.659Z,13.80
2023-01-19T15:16:34.064Z,13.20
2023-01-19T15:19:01.221Z,12.90
2023-01-19T15:21:28.267Z,15.35
2023-01-19T15:23:55.818Z,14.20
2023-01-19T15:26:26.019Z,14.30
2023-01-19T15:28:53.651Z,18.02
2023-01-19T15:31:24.632Z,15.25
2023-01-19T15:33:52.009Z,14.60
2023-01-19T15:36:21.953Z,18.40
2023-01-19T15:38:51.112Z,62.30
2023-01-19T15:41:29.813Z,36.22
2023-01-19T15:43:57.423Z,18.42
2023-01-19T15:46:26.179Z,19.85
2023-01-19T15:48:55.260Z,16.75
2023-01-19T15:51:25.909Z,18.70
2023-01-19T15:53:55.282Z,23.52
2023-01-19T15:56:29.270Z,17.42
2023-01-19T15:58:58.663Z,33.45
2023-01-19T16:01:31.560Z,28.20
2023-01-19T16:04:01.548Z,25.55
2023-01-19T16:06:30.707Z,49.47
2023-01-19T16:09:01.889Z,17.30
2023-01-19T16:11:33.684Z,18.33
2023-01-19T16:14:01.647Z,18.80
2023-01-19T16:16:28.847Z,16.80
2023-01-19T16:18:56.512Z,16.88
2023-01-19T16:21:23.897Z,17.35
2023-01-19T16:23:51.351Z,17.83
2023-01-19T16:26:35.012Z,17.00
2023-01-19T16:29:09.930Z,18.90
2023-01-19T16:31:42.386Z,17.70
2023-01-19T16:34:10.203Z,18.15
2023-01-19T16:36:40.478Z,16.65
2023-01-19T16:39:14.121Z,17.25
2023-01-19T16:41:42.979Z,19.03
2023-01-19T16:44:15.073Z,24.95
2023-01-19T16:46:45.409Z,16.60
2023-01-19T16:49:16.720Z,16.52
2023-01-19T16:51:43.846Z,16.50
2023-01-19T16:54:20.169Z,25.23
2023-01-19T16:56:47.644Z,36.67
2023-01-19T16:59:17.268Z,24.67
2023-01-19T17:01:45.527Z,21.80
2023-01-19T17:04:14.062Z,17.48
2023-01-19T17:06:41.124Z,19.10
2023-01-19T17:09:12.104Z,18.73
2023-01-19T17:11:42.988Z,17.33
2023-01-19T17:14:20.916Z,19.63
2023-01-19T17:16:48.993Z,18.88
2023-01-19T17:19:20.074Z,20.73
2023-01-19T17:21:49.715Z,19.25
2023-01-19T17:24:17.600Z,19.13
2023-01-19T17:26:45.978Z,18.90
2023-01-19T17:29:13.105Z,18.33
2023-01-19T17:31:40.337Z,18.98
2023-01-19T17:34:08.856Z,19.15
2023-01-19T17:36:36.569Z,21.05
2023-01-19T17:39:11.525Z,20.48
2023-01-19T17:41:38.730Z,19.58
2023-01-19T17:44:06.485Z,19.52
2023-01-19T17:46:37.750Z,20.17
2023-01-19T17:49:07.270Z,19.60
2023-01-19T17:51:35.573Z,20.55
2023-01-19T17:54:04.555Z,20.15
2023-01-19T17:56:36.731Z,20.60
2023-01-19T17:59:08.090Z,20.33
2023-01-19T18:01:40.350Z,19.98
2023-01-19T18:04:09.242Z,20.85
2023-01-19T18:06:39.128Z,20.00
2023-01-19T18:09:07.388Z,21.63
2023-01-19T18:11:35.499Z,22.50
2023-01-19T18:14:02.846Z,22.08
2023-01-19T18:16:30.708Z,21.52
2023-01-19T18:19:01.115Z,30.27
2023-01-19T18:21:30.787Z,64.68
2023-01-19T18:24:03.883Z,44.55
2023-01-19T18:26:33.589Z,28.48
2023-01-19T18:29:01.100Z,29.13
2023-01-19T18:31:28.204Z,29.80
2023-01-19T18:33:55.645Z,30.92
2023-01-19T18:36:23.166Z,52.38
2023-01-19T18:38:50.307Z,41.05
2023-01-19T18:41:20.648Z,32.42
2023-01-19T18:43:48.617Z,32.33
2023-01-19T18:46:16.445Z,26.58
2023-01-19T18:48:44.274Z,29.10
2023-01-19T18:51:16.577Z,27.73
2023-01-19T18:53:45.041Z,24.70
2023-01-19T18:56:15.267Z,26.60
2023-01-19T18:58:43.324Z,27.27
2023-01-19T19:01:25.473Z,25.52
2023-01-19T19:03:54.605Z,23.92
2023-01-19T19:06:24.034Z,24.58
2023-01-19T19:08:52.616Z,24.17
2023-01-19T19:11:22.351Z,25.33
2023-01-19T19:14:02.110Z,27.98
2023-01-19T19:16:30.426Z,27.50
2023-01-19T19:18:59.079Z,25.83
2023-01-19T19:21:26.629Z,26.98
2023-01-19T19:23:56.601Z,25.88
2023-01-19T19:26:27.008Z,26.75
2023-01-19T19:28:54.038Z,24.80
2023-01-19T19:31:23.564Z,29.98
2023-01-19T19:33:51.230Z,29.52
2023-01-19T19:36:20.533Z,36.22
2023-01-19T19:38:49.465Z,37.83
2023-01-19T19:41:24.533Z,33.38
2023-01-19T19:43:53.057Z,52.08
2023-01-19T19:46:22.872Z,39.85
2023-01-19T19:48:50.403Z,38.60
2023-01-19T19:51:25.676Z,32.55
2023-01-19T19:53:56.059Z,29.33
2023-01-19T19:56:25.647Z,31.70
2023-01-19T19:58:56.481Z,28.67
2023-01-19T20:01:32.930Z,29.30
2023-01-19T20:04:08.432Z,25.10
2023-01-19T20:06:38.908Z,24.27
2023-01-19T20:09:09.276Z,28.98
2023-01-19T20:11:36.495Z,26.98
2023-01-19T20:14:09.635Z,26.15
2023-01-19T20:16:37.203Z,27.85
2023-01-19T20:19:05.102Z,27.20
2023-01-19T20:21:35.821Z,31.35
2023-01-19T20:24:12.648Z,25.40
2023-01-19T20:26:43.524Z,24.95
2023-01-19T20:29:11.926Z,25.15
2023-01-19T20:31:45.296Z,26.02
2023-01-19T20:34:15.319Z,24.35
2023-01-19T20:36:43.883Z,25.10
2023-01-19T20:39:12.758Z,26.45
2023-01-19T20:41:44.752Z,24.10
2023-01-19T20:44:22.381Z,24.92
2023-01-19T20:46:50.367Z,23.63
2023-01-19T20:49:19.114Z,26.30
2023-01-19T20:51:46.966Z,29.60
2023-01-19T20:54:18.264Z,28.15
2023-01-19T20:56:45.284Z,27.17
2023-01-19T20:59:13.164Z,28.20
2023-01-19T21:01:41.097Z,27.33
2023-01-19T21:04:08.619Z,27.45
2023-01-19T21:06:36.694Z,30.25
2023-01-19T21:09:04.625Z,28.33
2023-01-19T21:11:31.754Z,28.48
2023-01-19T21:13:58.814Z,29.63
2023-01-19T21:16:29.846Z,29.25
2023-01-19T21:18:56.864Z,28.10
2023-01-19T21:21:30.819Z,28.80
2023-01-19T21:24:00.837Z,28.98
2023-01-19T21:26:30.210Z,30.88
2023-01-19T21:29:02.509Z,27.23
2023-01-19T21:31:30.281Z,28.40
2023-01-19T21:33:58.671Z,31.60
2023-01-19T21:36:26.062Z,28.25
2023-01-19T21:38:55.577Z,27.73
2023-01-19T21:41:22.866Z,36.88
2023-01-19T21:43:49.893Z,31.33
2023-01-19T21:46:28.908Z,29.30
2023-01-19T21:48:58.889Z,30.27
2023-01-19T21:51:26.159Z,32.13
2023-01-19T21:53:55.354Z,30.77
2023-01-19T21:56:22.956Z,29.67
2023-01-19T21:58:49.869Z,30.45
2023-01-19T22:01:17.152Z,27.73
2023-01-19T22:03:44.222Z,28.75
2023-01-19T22:06:14.535Z,27.77
2023-01-19T22:08:42.640Z,25.92
2023-01-19T22:11:12.710Z,27.70
2023-01-19T22:13:40.623Z,25.55
2023-01-19T22:16:14.671Z,27.35
2023-01-19T22:18:45.392Z,27.02
2023-01-19T22:21:40.120Z,26.08
2023-01-19T22:24:07.641Z,28.33
2023-01-19T22:26:34.958Z,28.80
2023-01-19T22:29:03.531Z,31.42
2023-01-19T22:31:33.400Z,26.52
2023-01-19T22:34:00.556Z,27.95
2023-01-19T22:36:36.023Z,27.60
2023-01-19T22:39:09.729Z,28.35
2023-01-19T22:41:47.183Z,28.80
2023-01-19T22:44:20.141Z,26.17
2023-01-19T22:46:48.927Z,29.35
2023-01-19T22:49:18.339Z,29.63
2023-01-19T22:51:45.715Z,27.33
2023-01-19T22:54:13.289Z,27.58
2023-01-19T22:56:40.953Z,29.02
2023-01-19T22:59:08.715Z,29.00
2023-01-19T23:01:39.906Z,27.63
2023-01-19T23:04:10.783Z,29.08
2023-01-19T23:06:38.304Z,29.10
2023-01-19T23:09:11.393Z,28.20
2023-01-19T23:11:43.739Z,29.75
2023-01-19T23:14:17.217Z,29.15
2023-01-19T23:16:44.503Z,29.25
2023-01-19T23:19:12.918Z,29.83
2023-01-19T23:21:41.650Z,28.58
2023-01-19T23:24:09.078Z,29.27
2023-01-19T23:26:39.941Z,29.67
2023-01-19T23:29:13.640Z,29.48
2023-01-19T23:31:45.999Z,28.90
2023-01-19T23:34:16.233Z,28.60
2023-01-19T23:36:43.713Z,29.50
2023-01-19T23:39:18.092Z,29.63
2023-01-19T23:41:45.562Z,28.83
2023-01-19T23:44:13.089Z,30.33
2023-01-19T23:46:40.208Z,31.38
2023-01-19T23:49:07.238Z,30.58
2023-01-19T23:51:34.923Z,30.70
2023-01-19T23:54:02.651Z,29.98
2023-01-19T23:56:34.233Z,31.27
2023-01-19T23:59:06.616Z,30.70
